RESULTATS »

INSCRITS PRESENTATS ACABEN RETIRATS DESQUALIFICATS DIST. TRAM 1 DIST. TRAM 2 DIST. TRAM 3 TEMP. EXT TEMP. AIGUA
430 411 14 5 6 18 3 0 0

CLASSIFICACIÓ

MASCULÍ FEMENÍ CATEGORIES CLUBS (MASCULINA) CLUBS (FEMENINA) INDIVIDUALS GRUPS D'EDAT

LLOCDORSALNOMCLUBCAT.T.META| P.Tram 1 || P.Tram 2 |Km/hTEMPS| P.Tram 3 |PARC_1PARC_2
1 22DOLÇA OLLE GATELLFASTTRIATLON CLUBABF01:01:5910700:18:1614000:35:0430.8000:53:208200:08:390:00:000:00:00
2 33SARA LOEHR MUÑOZFASTTRIATLON CLUBABF01:02:2710600:18:1614700:35:1330.6700:53:2911400:08:580:00:000:00:00
3 5001ANNA NOGUERA RAJAINDEPENDENTSUB23F01:05:4014800:18:4723600:37:3928.6900:56:2615300:09:140:00:000:00:00
4 4081SONIA JULIA SANCHEZC.A. IGUALADAABF01:06:0522400:19:3821900:37:0629.1100:56:4417100:09:210:00:000:00:00
5 3516NURIA PEIX TARRESC.N. VIC-ETBSUB23F01:06:2028600:20:2717500:36:0229.9700:56:2924500:09:510:00:000:00:00
6 1976PILAR RUS GARCIAC.N. REUS PLOMSABF01:07:2718300:19:1126700:38:5927.7000:58:1016100:09:170:00:000:00:00
7 68MERCHE BONASTRE RODRIGUEZC.N. PRAT-TRIATLOV1F01:07:3522500:19:4024200:38:1228.2700:57:5221900:09:430:00:000:00:00
8 5003SUSANNA MOLAS CASACUBERTAINDEPENDENTABF01:07:4021500:19:3225400:38:4027.9300:58:1219000:09:280:00:000:00:00
9 1803OLGA SEPÚLVEDA SERRANOC.N. PRAT-TRIATLOABF01:08:2924400:19:5527300:39:0827.6000:59:0318300:09:260:00:000:00:00
10 1911JULIANA VILLASANTE DUEÑASTRIATLO BCN-TRIFORFUNSUB23F01:08:5328800:20:3225200:38:3727.9700:59:0922100:09:440:00:000:00:00
11 1818MARTA CUSIDO USTRELLC.T. S.J. ABADESSESV1F01:09:0827600:20:2027100:39:0527.6300:59:2521800:09:430:00:000:00:00
12 125MARTA BOTSORAC.N. PRAT-TRIATLOJNF01:09:1026600:20:1122800:37:2428.8800:57:3537400:11:350:00:000:00:00
13 4080MIRIAM ALBERO ABASCALC.N. PRAT-TRIATLOSUB23F01:10:1328700:20:3128800:39:3327.3101:00:0428500:10:090:00:000:00:00
14 3521MONICA CRISOL SALASC.N. PRAT-TRIATLOABF01:11:1627100:20:1831600:41:1226.2101:01:3023200:09:460:00:000:00:00
15 3518ANNA FLAQUER PORTIFASTTRIATLON CLUBSUB23F01:12:0915000:18:4835000:43:4124.7201:02:2921200:09:400:00:000:00:00
16 1858ANNA POBLET CASANOVASCLUB ESPORTIU CUBE MANRESABF01:12:3335100:22:0129700:40:0526.9401:02:0631300:10:270:00:000:00:00
17 95CRISTINA PASTOR GARCIAINDEPENDENTABF01:12:4929900:20:3833500:42:2625.4501:03:0422600:09:450:00:000:00:00
18 3524KATE VALL ROVIRACLUB TRIATLO L´EIX DE NAVSUB23F01:13:1134600:21:4730800:40:4226.5401:02:2933400:10:420:00:000:00:00
19 1889TABITA CABALLERO GONZALVEC.N. TERRASSA-CICLES MOREABF01:13:1624700:19:5735400:43:5924.5501:03:5616500:09:200:00:000:00:00
20 1990ARIADNA VIDAL BORRASCLUB TRIATLO SABADELLSUB23F01:14:0736000:22:1129300:39:5127.1001:02:0239100:12:050:00:000:00:00
21 1815BELÉN SALOMONI SCHWABTRIATLO BCN-TRIFORFUNABF01:14:1735000:22:0033000:41:5825.7301:03:5829600:10:190:00:000:00:00
22 6075LAURENCE LESTANGLLICENCIA DE DIAABF01:16:0133800:21:3435700:44:0724.4801:05:4130200:10:200:00:000:00:00
23 1873ALEJANDRA FERNÁNDEZ PÉREZCAMBRILS CLUB TRIATLOABF01:16:0233900:21:3535300:43:5424.6001:05:2932100:10:330:00:000:00:00
24 3547EIDER ESTIBARIZTRIATLO BCN-TRIFORFUNABF01:16:4536600:22:2135100:43:5124.6301:06:1232200:10:330:00:000:00:00
25 62MIREIA RODRIGUEZ CARREÑOC.N. TERRASSA-CICLES MOREABF01:16:4836500:22:2034000:43:0925.0301:05:2936300:11:190:00:000:00:00
26 1968SUSANNA LLOPART BELLOCC.A. IGUALADAABF01:18:5337600:22:5336900:45:1323.8801:08:0634000:10:470:00:000:00:00
27 3588ESTHER VIDAL PAJARESCLUB ATLETIC VAL D´ARANABF01:18:5338200:23:1636000:44:3424.2301:07:5035500:11:030:00:000:00:00
28 1972ANTONIA VERA FERNANDEZC. TRI. GRANOLLERSV1F01:19:1138000:23:0736300:44:5924.0101:08:0635700:11:050:00:000:00:00
29 3525GEMMA FARRE VILACLUB TRIATLO SABADELLABF01:19:1937200:22:4436700:45:0723.9401:07:5136900:11:280:00:000:00:00
30 4049NEUS LLADO GUITARTC.A. IGUALADASUB23F01:20:4037800:23:0337300:46:0623.4301:09:0937000:11:310:00:000:00:00
31 6069LOLI MELLADO SANCESLLICENCIA DE DIAABF01:20:5739200:24:1136400:45:0123.9901:09:1238100:11:450:00:000:00:00
32 1832NÚRIA HERNÀNDEZ ROVIRACLUB TRIBANDA TRIATLOABF01:22:2939400:24:1637400:46:0823.4101:10:2439000:12:050:00:000:00:00
33 1826LIDIA BORRAS GARCIAC.A. IGUALADAABF01:23:5439300:24:1238000:47:2522.7801:11:3739400:12:170:00:000:00:00
34 5002CLARA RUIZ RADIGALESC.A. IGUALADAV1F01:24:1839600:24:3337900:47:1122.8901:11:4439600:12:340:00:000:00:00
35 31MONTSE CUEVAS CASTILLOC. TRI. GRANOLLERSV2F01:24:5539100:24:0738700:48:5322.0901:13:0038500:11:550:00:000:00:00
36 3584EVA SANCHEZ TABIOSCLUB TRIATLO L´EIX DE NAVABF01:25:3539000:24:0139000:49:4721.6901:13:4838200:11:470:00:000:00:00
37 1885MAMEN ROMAN MARINC.N. TERRASSA-CICLES MOREABF01:25:5438600:23:4239300:50:1521.4901:13:5738700:11:570:00:000:00:00
38 20MONSERRAT CLAVERO SANCHEZC.N. REUS PLOMSV3F01:26:1440100:25:4438400:48:0622.4501:13:5039500:12:240:00:000:00:00
39 1851MARTA SANCHEZ SALINASCLUB TRIATLO L´EIX DE NAVV1F01:27:4139700:24:5239500:50:3421.3601:15:2639300:12:150:00:000:00:00
40 1941CRISTINA MARTINEZ RUBIOTRIATLO BCN-TRIFORFUNABF01:31:0240000:25:2940100:51:5720.7901:17:2640800:13:360:00:000:00:00
41 16ROSA MARIA MOR ABATCLUB CASTELLFOLLIT TRIATLV2F01:32:4740800:26:5540400:53:0220.3601:19:5739900:12:500:00:000:00:00
42 1886LOURDES RODRIGUEZ LLANESC.N. PRAT-TRIATLOABF01:35:2641000:27:2840600:53:5620.0201:21:2441000:14:020:00:000:00:00
43 3510MIRIAM OMS ARIASCLUB TRIATLO SABADELLV1F01:35:3840900:27:1240800:55:1519.5501:22:2740200:13:110:00:000:00:00
44 5004ISA RAMOS DA PENABARCELONA DRAGONS TRIATHLV1F01:36:2440700:26:5341000:55:5919.2901:22:5240700:13:320:00:000:00:00






FEDERACIÓ CATALANA DE TRIATLÓ
SEU CENTRAL I CORRESPONDÈNCIA: Rambla Guipúscoa 23-25 2on-D · 08018 Barcelona · Tel / Fax : 93 307 93 35
ATENCIÓ AL PÚBLIC: Passeig Joan de Borbó, 93 (Club Natació Barcelona) · 08039 Barcelona · Tel / Fax : 93 307 93 32